createdAt,value
2019-05-21T00:02:07.282Z,89.88
2019-05-21T00:04:38.857Z,90.11
2019-05-21T00:07:10.448Z,90.24
2019-05-21T00:09:42.019Z,89.98
2019-05-21T00:12:13.586Z,89.77
2019-05-21T00:14:45.157Z,89.89
2019-05-21T00:17:16.775Z,89.99
2019-05-21T00:19:48.296Z,89.74
2019-05-21T00:22:19.876Z,90.05
2019-05-21T00:24:52.773Z,90.08
2019-05-21T00:27:24.418Z,90.02
2019-05-21T00:30:51.204Z,89.89
2019-05-21T00:34:17.814Z,89.98
2019-05-21T00:37:43.326Z,90.13
2019-05-21T00:41:09.099Z,89.81
2019-05-21T00:43:59.458Z,90.12
2019-05-21T00:46:31.055Z,90.03
2019-05-21T00:49:02.661Z,90.10
2019-05-21T00:51:34.236Z,90.24
2019-05-21T00:54:05.819Z,90.12
2019-05-21T00:56:37.427Z,90.29
2019-05-21T00:59:08.997Z,90.17
2019-05-21T01:01:40.615Z,89.94
2019-05-21T01:04:12.267Z,90.06
2019-05-21T01:06:44.223Z,90.14
2019-05-21T01:09:15.791Z,90.23
2019-05-21T01:11:47.401Z,90.23
2019-05-21T01:14:18.959Z,90.25
2019-05-21T01:16:50.554Z,90.21
2019-05-21T01:19:22.115Z,90.22
2019-05-21T01:21:53.700Z,90.19
2019-05-21T01:24:25.283Z,89.77
2019-05-21T01:26:56.876Z,89.78
2019-05-21T01:29:28.466Z,89.97
2019-05-21T01:32:01.122Z,90.08
2019-05-21T01:34:33.096Z,89.95
2019-05-21T01:37:04.936Z,89.99
2019-05-21T01:39:37.596Z,89.78
2019-05-21T01:42:09.153Z,89.96
2019-05-21T01:44:40.741Z,90.01
2019-05-21T01:47:12.310Z,89.75
2019-05-21T01:49:43.908Z,89.80
2019-05-21T01:52:16.672Z,89.83
2019-05-21T01:54:48.270Z,89.76
2019-05-21T01:57:19.847Z,89.72
2019-05-21T01:59:51.419Z,89.43
2019-05-21T02:02:23.018Z,89.74
2019-05-21T02:04:54.572Z,89.40
2019-05-21T02:07:26.148Z,89.55
2019-05-21T02:10:00.935Z,89.73
2019-05-21T02:12:32.509Z,89.79
2019-05-21T02:15:04.100Z,89.88
2019-05-21T02:17:35.667Z,89.81
2019-05-21T02:20:07.718Z,89.87
2019-05-21T02:22:39.298Z,89.87
2019-05-21T02:25:11.017Z,89.83
2019-05-21T02:27:42.614Z,89.46
2019-05-21T02:30:14.574Z,89.56
2019-05-21T02:32:46.155Z,89.38
2019-05-21T02:35:17.726Z,89.41
2019-05-21T02:37:49.303Z,89.36
2019-05-21T02:40:21.524Z,89.50
2019-05-21T02:42:53.172Z,89.43
2019-05-21T02:45:24.739Z,89.41
2019-05-21T02:47:57.367Z,89.25
2019-05-21T02:50:28.962Z,89.23
2019-05-21T02:53:00.532Z,89.11
2019-05-21T02:55:32.180Z,89.17
2019-05-21T02:58:03.740Z,89.25
2019-05-21T03:01:03.291Z,89.00
2019-05-21T03:03:36.441Z,88.97
2019-05-21T03:06:13.602Z,89.02
2019-05-21T03:08:41.293Z,89.12
2019-05-21T03:11:12.862Z,89.12
2019-05-21T03:13:44.425Z,89.03
2019-05-21T03:16:16.032Z,88.74
2019-05-21T03:18:47.587Z,88.86
2019-05-21T03:21:19.162Z,88.58
2019-05-21T03:23:50.748Z,89.03
2019-05-21T03:26:22.326Z,89.14
2019-05-21T03:28:53.884Z,89.20
2019-05-21T03:31:25.502Z,89.39
2019-05-21T03:33:57.049Z,89.48
2019-05-21T03:36:33.384Z,89.42
2019-05-21T03:39:02.146Z,89.20
2019-05-21T03:41:33.732Z,89.34
2019-05-21T03:44:05.362Z,88.95
2019-05-21T03:46:36.917Z,89.12
2019-05-21T03:49:08.498Z,89.11
2019-05-21T03:51:40.076Z,89.04
2019-05-21T03:54:11.668Z,88.90
2019-05-21T03:56:43.235Z,89.00
2019-05-21T03:59:14.875Z,89.02
2019-05-21T04:01:46.455Z,88.95
2019-05-21T04:04:18.021Z,88.86
2019-05-21T04:06:52.276Z,88.71
2019-05-21T04:09:22.886Z,88.81
2019-05-21T04:11:54.442Z,88.90
2019-05-21T04:14:50.874Z,88.88
2019-05-21T04:17:34.360Z,89.16
2019-05-21T04:20:03.465Z,89.04
2019-05-21T04:22:36.683Z,88.79
2019-05-21T04:25:08.264Z,88.86
2019-05-21T04:27:39.908Z,88.95
2019-05-21T04:30:13.064Z,88.91
2019-05-21T04:32:44.610Z,89.17
2019-05-21T04:35:16.338Z,89.14
2019-05-21T04:37:47.903Z,88.91
2019-05-21T04:40:19.497Z,88.64
2019-05-21T04:42:51.052Z,88.37
2019-05-21T04:45:22.663Z,88.78
2019-05-21T04:47:54.233Z,88.96
2019-05-21T04:50:26.881Z,89.01
2019-05-21T04:52:58.436Z,88.97
2019-05-21T04:55:30.066Z,89.15
2019-05-21T04:58:01.638Z,89.09
2019-05-21T05:00:33.228Z,88.94
2019-05-21T05:03:04.826Z,89.17
2019-05-21T05:05:36.429Z,89.27
2019-05-21T05:08:07.980Z,89.31
2019-05-21T05:10:39.585Z,89.41
2019-05-21T05:13:11.169Z,89.20
2019-05-21T05:15:42.923Z,89.00
2019-05-21T05:18:14.503Z,89.19
2019-05-21T05:20:46.098Z,89.02
2019-05-21T05:23:17.733Z,89.16
2019-05-21T05:25:49.257Z,89.30
2019-05-21T05:28:20.849Z,89.32
2019-05-21T05:30:52.414Z,89.42
2019-05-21T05:33:24.005Z,89.33
2019-05-21T05:35:55.593Z,88.99
2019-05-21T05:38:27.177Z,89.06
2019-05-21T05:40:58.782Z,89.22
2019-05-21T05:43:30.375Z,89.28
2019-05-21T05:46:01.941Z,89.14
2019-05-21T05:48:35.207Z,89.53
2019-05-21T05:51:07.749Z,89.80
2019-05-21T05:53:57.256Z,89.06
2019-05-21T05:56:30.033Z,89.20
2019-05-21T05:59:01.607Z,89.43
2019-05-21T06:01:34.467Z,89.33
2019-05-21T06:04:06.180Z,89.20
2019-05-21T06:06:37.778Z,89.41
2019-05-21T06:09:09.355Z,89.50
2019-05-21T06:11:40.945Z,89.56
2019-05-21T06:14:12.554Z,89.58
2019-05-21T06:16:44.147Z,89.59
2019-05-21T06:19:15.720Z,89.85
2019-05-21T06:21:47.295Z,89.68
2019-05-21T06:24:18.866Z,89.22
2019-05-21T06:26:50.426Z,89.29
2019-05-21T06:29:22.013Z,89.54
2019-05-21T06:31:53.601Z,89.57
2019-05-21T06:34:25.200Z,89.67
2019-05-21T06:36:57.852Z,89.67
2019-05-21T06:39:29.439Z,89.96
2019-05-21T06:42:01.039Z,90.10
2019-05-21T06:44:32.722Z,89.94
2019-05-21T06:47:04.273Z,89.94
2019-05-21T06:49:35.980Z,90.25
2019-05-21T06:52:07.551Z,90.22
2019-05-21T06:54:39.148Z,90.01
2019-05-21T06:57:10.760Z,90.01
2019-05-21T06:59:42.340Z,90.13
2019-05-21T07:02:14.013Z,89.95
2019-05-21T07:04:45.590Z,89.74
2019-05-21T07:07:17.199Z,89.37
2019-05-21T07:09:48.743Z,89.66
2019-05-21T07:12:20.341Z,89.91
2019-05-21T07:14:51.901Z,90.03
2019-05-21T07:17:23.505Z,90.25
2019-05-21T07:19:55.162Z,90.37
2019-05-21T07:22:26.735Z,90.31
2019-05-21T07:24:58.302Z,90.15
2019-05-21T07:27:29.935Z,90.02
2019-05-21T07:30:01.500Z,89.95
2019-05-21T07:32:33.161Z,89.97
2019-05-21T07:35:05.185Z,90.07
2019-05-21T07:37:37.739Z,89.96
2019-05-21T07:40:09.693Z,89.64
2019-05-21T07:42:42.770Z,89.50
2019-05-21T07:45:14.482Z,89.33
2019-05-21T07:47:46.071Z,89.18
2019-05-21T07:50:17.771Z,89.39
2019-05-21T07:52:49.358Z,89.54
2019-05-21T07:55:20.950Z,89.54
2019-05-21T07:57:52.564Z,89.32
2019-05-21T08:00:25.275Z,89.39
2019-05-21T08:02:56.888Z,89.55
2019-05-21T08:05:28.434Z,89.35
2019-05-21T08:07:59.998Z,89.31
2019-05-21T08:10:31.578Z,89.29
2019-05-21T08:13:03.227Z,89.08
2019-05-21T08:15:34.816Z,89.12
2019-05-21T08:18:06.408Z,89.14
2019-05-21T08:20:37.965Z,89.22
2019-05-21T08:23:09.552Z,89.23
2019-05-21T08:25:41.104Z,89.57
2019-05-21T08:28:12.711Z,89.35
2019-05-21T08:30:44.307Z,89.00
2019-05-21T08:33:15.873Z,89.02
2019-05-21T08:35:47.762Z,89.45
2019-05-21T08:38:19.388Z,89.60
2019-05-21T08:40:50.968Z,89.59
2019-05-21T08:43:22.535Z,89.34
2019-05-21T08:45:54.102Z,89.36
2019-05-21T08:48:25.666Z,89.15
2019-05-21T08:50:57.262Z,89.06
2019-05-21T08:53:29.886Z,88.94
2019-05-21T08:56:01.501Z,89.06
2019-05-21T08:58:33.096Z,88.96
2019-05-21T09:01:04.715Z,88.94
2019-05-21T09:03:36.274Z,88.94
2019-05-21T09:06:07.853Z,88.96
2019-05-21T09:08:39.401Z,88.90
2019-05-21T09:11:11.024Z,89.13
2019-05-21T09:13:42.614Z,88.90
2019-05-21T09:16:14.225Z,89.09
2019-05-21T09:18:45.798Z,88.98
2019-05-21T09:21:18.470Z,88.91
2019-05-21T09:23:50.035Z,89.00
2019-05-21T09:26:21.670Z,88.78
2019-05-21T09:28:53.261Z,88.60
2019-05-21T09:31:24.857Z,88.85
2019-05-21T09:33:56.447Z,88.63
2019-05-21T09:36:28.279Z,88.65
2019-05-21T09:38:59.956Z,88.52
2019-05-21T09:41:31.530Z,88.65
2019-05-21T09:44:04.353Z,88.52
2019-05-21T09:46:35.906Z,88.89
2019-05-21T09:49:07.480Z,88.80
2019-05-21T09:51:39.057Z,88.64
2019-05-21T09:54:10.674Z,88.48
2019-05-21T09:56:42.240Z,88.60
2019-05-21T09:59:37.113Z,88.50
2019-05-21T10:02:12.949Z,88.34
2019-05-21T10:04:44.552Z,88.84
2019-05-21T10:07:16.122Z,88.98
2019-05-21T10:09:47.868Z,89.03
2019-05-21T10:12:19.562Z,89.20
2019-05-21T10:14:51.141Z,89.34
2019-05-21T10:17:22.734Z,89.26
2019-05-21T10:19:54.368Z,89.15
2019-05-21T10:22:25.957Z,89.40
2019-05-21T10:24:57.612Z,89.41
2019-05-21T10:27:29.216Z,89.41
2019-05-21T10:30:01.857Z,89.05
2019-05-21T10:32:33.490Z,89.47
2019-05-21T10:35:05.566Z,89.59
2019-05-21T10:37:37.531Z,89.31
2019-05-21T10:40:09.335Z,89.53
2019-05-21T10:42:41.250Z,89.57
2019-05-21T10:45:13.060Z,89.51
2019-05-21T10:47:44.646Z,89.71
2019-05-21T10:50:16.436Z,89.69
2019-05-21T10:52:48.001Z,89.53
2019-05-21T10:55:19.565Z,89.59
2019-05-21T10:57:51.167Z,89.69
2019-05-21T11:00:23.903Z,89.91
2019-05-21T11:03:03.825Z,89.56
2019-05-21T11:05:44.520Z,89.66
2019-05-21T11:08:24.943Z,89.51
2019-05-21T11:10:49.720Z,89.62
2019-05-21T11:13:21.524Z,89.41
2019-05-21T11:15:53.168Z,89.55
2019-05-21T11:18:24.755Z,89.37
2019-05-21T11:20:56.318Z,89.43
2019-05-21T11:23:27.914Z,89.33
2019-05-21T11:25:59.513Z,89.29
2019-05-21T11:28:31.144Z,89.24
2019-05-21T11:31:02.746Z,89.31
2019-05-21T11:33:34.349Z,89.25
2019-05-21T11:36:05.944Z,89.43
2019-05-21T11:38:40.117Z,89.53
2019-05-21T11:41:10.801Z,89.11
2019-05-21T11:43:42.532Z,89.73
2019-05-21T11:46:14.077Z,89.68
2019-05-21T11:48:45.734Z,89.75
2019-05-21T11:51:18.407Z,89.55
2019-05-21T11:53:49.990Z,89.14
2019-05-21T11:56:21.554Z,88.96
2019-05-21T11:58:53.168Z,89.27
2019-05-21T12:01:24.771Z,88.70
2019-05-21T12:03:56.445Z,88.75
2019-05-21T12:06:28.044Z,88.88
2019-05-21T12:08:59.678Z,88.88
2019-05-21T12:11:31.274Z,88.92
2019-05-21T12:14:02.849Z,88.76
2019-05-21T12:16:34.448Z,88.52
2019-05-21T12:19:08.203Z,88.42
2019-05-21T12:21:39.362Z,88.77
2019-05-21T12:24:10.955Z,88.87
2019-05-21T12:26:42.538Z,88.37
2019-05-21T12:29:14.096Z,88.75
2019-05-21T12:31:45.703Z,88.55
2019-05-21T12:34:17.286Z,88.65
2019-05-21T12:36:48.902Z,88.74
2019-05-21T12:39:20.472Z,88.58
2019-05-21T12:41:52.077Z,88.64
2019-05-21T12:44:23.657Z,88.95
2019-05-21T12:46:55.268Z,88.90
2019-05-21T12:49:26.880Z,88.39
2019-05-21T12:51:58.409Z,88.50
2019-05-21T12:54:30.033Z,89.02
2019-05-21T12:57:01.649Z,88.76
2019-05-21T12:59:33.224Z,88.39
2019-05-21T13:02:04.833Z,88.35
2019-05-21T13:04:36.416Z,88.77
2019-05-21T13:07:08.029Z,88.76
2019-05-21T13:09:39.635Z,88.61
2019-05-21T13:12:11.229Z,88.09
2019-05-21T13:14:42.842Z,88.09
2019-05-21T13:17:14.430Z,88.38
2019-05-21T13:19:45.979Z,88.13
2019-05-21T13:22:17.571Z,88.39
2019-05-21T13:24:49.294Z,88.26
2019-05-21T13:27:20.878Z,88.33
2019-05-21T13:29:52.469Z,88.15
2019-05-21T13:32:24.030Z,88.44
2019-05-21T13:34:55.655Z,88.37
2019-05-21T13:37:27.232Z,88.74
2019-05-21T13:39:58.889Z,88.69
2019-05-21T13:42:30.465Z,88.79
2019-05-21T13:45:02.100Z,88.64
2019-05-21T13:47:34.746Z,88.54
2019-05-21T13:50:07.342Z,88.58
2019-05-21T13:52:39.057Z,88.40
2019-05-21T13:55:10.946Z,88.56
2019-05-21T13:57:42.641Z,88.42
2019-05-21T14:00:18.898Z,87.85
2019-05-21T14:02:50.868Z,88.35
2019-05-21T14:05:23.326Z,88.41
2019-05-21T14:07:54.929Z,88.62
2019-05-21T14:10:26.763Z,88.44
2019-05-21T14:12:58.379Z,88.07
2019-05-21T14:15:30.011Z,88.51
2019-05-21T14:18:01.659Z,88.78
2019-05-21T14:20:33.264Z,88.70
2019-05-21T14:23:05.252Z,88.44
2019-05-21T14:25:36.828Z,88.51
2019-05-21T14:28:08.434Z,88.56
2019-05-21T14:30:40.058Z,88.42
2019-05-21T14:33:11.659Z,88.56
2019-05-21T14:35:43.232Z,88.76
2019-05-21T14:38:14.857Z,88.55
2019-05-21T14:40:46.512Z,88.22
2019-05-21T14:43:18.153Z,88.34
2019-05-21T14:45:49.770Z,88.60
2019-05-21T14:48:21.357Z,88.43
2019-05-21T14:50:52.979Z,88.42
2019-05-21T14:53:24.583Z,88.33
2019-05-21T14:55:56.589Z,88.31
2019-05-21T14:58:28.229Z,88.67
2019-05-21T15:00:59.821Z,88.84
2019-05-21T15:03:31.413Z,88.90
2019-05-21T15:06:03.054Z,88.59
2019-05-21T15:08:34.680Z,88.41
2019-05-21T15:11:06.352Z,88.80
2019-05-21T15:13:38.008Z,89.06
2019-05-21T15:16:09.651Z,88.66
2019-05-21T15:18:41.269Z,88.80
2019-05-21T15:21:21.154Z,88.84
2019-05-21T15:23:52.825Z,88.74
2019-05-21T15:26:24.522Z,88.85
2019-05-21T15:28:57.232Z,89.02
2019-05-21T15:31:28.824Z,88.94
2019-05-21T15:34:00.425Z,88.93
2019-05-21T15:36:32.027Z,88.69
2019-05-21T15:39:04.862Z,88.80
2019-05-21T15:41:36.595Z,88.99
2019-05-21T15:44:08.227Z,89.12
2019-05-21T15:46:48.778Z,89.17
2019-05-21T15:49:13.293Z,89.35
2019-05-21T15:51:44.899Z,89.04
2019-05-21T15:54:16.530Z,88.79
2019-05-21T15:56:48.215Z,88.88
2019-05-21T15:59:19.796Z,88.97
2019-05-21T16:01:51.407Z,88.87
2019-05-21T16:04:22.985Z,88.91
2019-05-21T16:06:54.625Z,88.92
2019-05-21T16:09:26.528Z,88.86
2019-05-21T16:11:58.171Z,88.84
2019-05-21T16:14:30.828Z,88.92
2019-05-21T16:17:02.532Z,88.76
2019-05-21T16:19:34.130Z,89.00
2019-05-21T16:22:05.764Z,89.23
2019-05-21T16:24:37.363Z,89.25
2019-05-21T16:27:09.023Z,89.31
2019-05-21T16:29:40.611Z,89.12
2019-05-21T16:32:13.358Z,89.42
2019-05-21T16:34:44.919Z,89.51
2019-05-21T16:37:16.943Z,89.67
2019-05-21T16:39:48.601Z,89.79
2019-05-21T16:42:20.229Z,89.52
2019-05-21T16:44:51.844Z,89.68
2019-05-21T16:47:23.566Z,89.72
2019-05-21T16:49:55.132Z,89.89
2019-05-21T16:52:26.759Z,89.92
2019-05-21T16:54:58.378Z,89.87
2019-05-21T16:57:30.155Z,89.88
2019-05-21T17:00:01.725Z,89.92
2019-05-21T17:02:34.995Z,89.60
2019-05-21T17:05:06.787Z,89.60
2019-05-21T17:07:38.375Z,89.79
2019-05-21T17:10:11.823Z,89.82
2019-05-21T17:12:43.401Z,89.89
2019-05-21T17:15:15.488Z,89.84
2019-05-21T17:17:47.158Z,89.49
2019-05-21T17:20:18.915Z,89.51
2019-05-21T17:22:50.531Z,89.32
2019-05-21T17:25:23.271Z,89.28
2019-05-21T17:27:54.893Z,89.29
2019-05-21T17:30:26.528Z,89.17
2019-05-21T17:32:58.181Z,88.39
2019-05-21T17:35:29.880Z,88.22
2019-05-21T17:38:01.566Z,88.26
2019-05-21T17:40:33.242Z,88.37
2019-05-21T17:43:04.880Z,88.67
2019-05-21T17:45:36.526Z,88.69
2019-05-21T17:48:08.418Z,88.61
2019-05-21T17:50:41.094Z,88.68
2019-05-21T17:53:12.858Z,88.29
2019-05-21T17:55:44.510Z,88.19
2019-05-21T17:58:17.188Z,88.23
2019-05-21T18:00:52.496Z,88.60
2019-05-21T18:03:25.302Z,88.76
2019-05-21T18:05:56.976Z,88.69
2019-05-21T18:08:30.355Z,88.73
2019-05-21T18:11:02.234Z,88.70
2019-05-21T18:13:33.984Z,88.76
2019-05-21T18:16:08.188Z,88.99
2019-05-21T18:18:39.809Z,89.04
2019-05-21T18:21:11.993Z,89.06
2019-05-21T18:23:43.982Z,89.21
2019-05-21T18:26:15.625Z,89.22
2019-05-21T18:28:47.244Z,89.39
2019-05-21T18:31:18.881Z,89.23
2019-05-21T18:33:50.596Z,89.15
2019-05-21T18:36:22.462Z,89.34
2019-05-21T18:38:54.195Z,89.22
2019-05-21T18:41:25.867Z,89.28
2019-05-21T18:43:57.610Z,89.52
2019-05-21T18:46:29.308Z,89.65
2019-05-21T18:49:00.944Z,89.62
2019-05-21T18:51:32.609Z,89.69
2019-05-21T18:54:04.346Z,89.83
2019-05-21T18:56:36.054Z,89.64
2019-05-21T18:59:08.322Z,89.62
2019-05-21T19:01:40.019Z,89.69
2019-05-21T19:04:11.677Z,89.62
2019-05-21T19:06:43.338Z,89.50
2019-05-21T19:09:15.002Z,89.44
2019-05-21T19:11:46.606Z,89.30
2019-05-21T19:14:18.457Z,89.27
2019-05-21T19:16:50.044Z,89.43
2019-05-21T19:19:21.723Z,89.38
2019-05-21T19:21:53.348Z,89.33
2019-05-21T19:24:24.953Z,89.41
2019-05-21T19:26:56.593Z,89.23
2019-05-21T19:29:28.223Z,89.21
2019-05-21T19:31:59.852Z,88.98
2019-05-21T19:34:31.488Z,88.91
2019-05-21T19:37:03.073Z,89.18
2019-05-21T19:39:34.919Z,89.21
2019-05-21T19:42:06.670Z,89.50
2019-05-21T19:44:38.386Z,89.52
2019-05-21T19:47:10.107Z,89.31
2019-05-21T19:49:41.770Z,89.36
2019-05-21T19:52:15.217Z,89.28
2019-05-21T19:54:46.861Z,89.44
2019-05-21T19:57:19.897Z,89.39
2019-05-21T19:59:52.496Z,89.05
2019-05-21T20:02:24.287Z,89.25
2019-05-21T20:04:56.499Z,89.34
2019-05-21T20:07:28.218Z,89.40
2019-05-21T20:10:00.396Z,89.62
2019-05-21T20:12:32.416Z,89.67
2019-05-21T20:15:04.001Z,89.61
2019-05-21T20:17:36.852Z,89.50
2019-05-21T20:20:09.758Z,89.30
2019-05-21T20:22:42.599Z,89.44
2019-05-21T20:25:15.743Z,89.45
2019-05-21T20:27:47.787Z,89.39
2019-05-21T20:30:23.022Z,89.36
2019-05-21T20:32:55.145Z,89.36
2019-05-21T20:35:30.029Z,89.37
2019-05-21T20:38:01.662Z,89.20
2019-05-21T20:40:33.494Z,89.14
2019-05-21T20:43:06.015Z,89.20
2019-05-21T20:45:39.974Z,89.28
2019-05-21T20:48:13.843Z,89.14
2019-05-21T20:50:46.170Z,89.20
2019-05-21T20:53:18.429Z,89.08
2019-05-21T20:55:50.214Z,89.33
2019-05-21T20:58:22.417Z,89.09
2019-05-21T21:01:00.946Z,89.06
2019-05-21T21:03:34.294Z,89.22
2019-05-21T21:06:06.212Z,89.55
2019-05-21T21:08:38.848Z,89.48
2019-05-21T21:11:11.282Z,89.45
2019-05-21T21:13:44.616Z,89.00
2019-05-21T21:16:16.435Z,88.99
2019-05-21T21:18:48.529Z,89.06
2019-05-21T21:21:20.359Z,89.07
2019-05-21T21:23:52.273Z,89.22
2019-05-21T21:26:24.351Z,89.02
2019-05-21T21:28:55.960Z,89.17
2019-05-21T21:31:27.578Z,89.15
2019-05-21T21:33:59.155Z,89.14
2019-05-21T21:36:31.682Z,89.13
2019-05-21T21:39:05.056Z,89.22
2019-05-21T21:41:38.850Z,89.14
2019-05-21T21:44:10.745Z,89.13
2019-05-21T21:46:42.613Z,89.20
2019-05-21T21:49:15.798Z,89.25
2019-05-21T21:51:47.665Z,89.03
2019-05-21T21:54:20.717Z,89.00
2019-05-21T21:56:52.454Z,88.86
2019-05-21T21:59:24.010Z,88.84
2019-05-21T22:02:03.783Z,88.68
2019-05-21T22:04:37.081Z,88.73
2019-05-21T22:07:08.906Z,88.87
2019-05-21T22:09:40.976Z,88.71
2019-05-21T22:12:16.798Z,88.49
2019-05-21T22:14:57.509Z,88.39
2019-05-21T22:17:29.188Z,88.67
2019-05-21T22:20:01.452Z,88.95
2019-05-21T22:22:34.467Z,88.79
2019-05-21T22:25:06.318Z,88.93
2019-05-21T22:27:38.164Z,88.99
2019-05-21T22:30:10.586Z,89.04
2019-05-21T22:32:42.207Z,88.99
2019-05-21T22:35:13.851Z,89.01
2019-05-21T22:37:45.561Z,88.67
2019-05-21T22:40:17.436Z,88.85
2019-05-21T22:42:49.040Z,88.99
2019-05-21T22:45:20.629Z,88.90
2019-05-21T22:47:52.231Z,89.01
2019-05-21T22:50:24.693Z,88.83
2019-05-21T22:52:56.374Z,88.83
2019-05-21T22:55:55.877Z,88.74
2019-05-21T22:58:27.495Z,88.54
2019-05-21T23:01:01.009Z,88.72
2019-05-21T23:03:33.050Z,88.65
2019-05-21T23:06:04.794Z,88.56
2019-05-21T23:08:36.772Z,88.75
2019-05-21T23:11:52.737Z,88.50
2019-05-21T23:14:24.307Z,88.41
2019-05-21T23:16:56.170Z,88.66
2019-05-21T23:19:32.452Z,88.61
2019-05-21T23:22:14.285Z,88.47
2019-05-21T23:24:48.171Z,88.52
2019-05-21T23:27:20.664Z,88.45
2019-05-21T23:29:52.823Z,88.77
2019-05-21T23:32:24.894Z,88.90
2019-05-21T23:34:57.191Z,88.54
2019-05-21T23:37:28.792Z,88.74
2019-05-21T23:40:00.951Z,88.36
2019-05-21T23:42:33.376Z,88.56
2019-05-21T23:45:05.301Z,88.59
2019-05-21T23:47:36.855Z,88.58
2019-05-21T23:50:10.365Z,88.44
2019-05-21T23:52:42.148Z,88.63
2019-05-21T23:55:14.718Z,88.73
2019-05-21T23:57:46.758Z,88.94
